Time;durP1;ratioP1;P1;durP2;ratioP2;P2;SDS_P1;SDS_P2;PMS_P1;PMS_P2;Temp;Humidity;BMP_temperature;BMP_pressure;BME280_temperature;BME280_humidity;BME280_pressure;Samples;Min_cycle;Max_cycle;Signal;HPM_P1;HPM_P2
2023/01/18 00:01:10;;;;;;;6.28;3.50;;;;;;;19.65;49.10;98349.16;5056614;28;20045;-58
2023/01/18 00:03:38;;;;;;;8.55;3.97;;;;;;;19.65;48.83;98355.34;5053682;28;20089;-59
2023/01/18 00:06:08;;;;;;;5.30;3.70;;;;;;;19.64;49.01;98358.22;5053775;28;20056;-59
2023/01/18 00:08:38;;;;;;;5.72;3.10;;;;;;;19.64;48.98;98363.59;5053973;28;20045;-58
2023/01/18 00:11:11;;;;;;;5.50;3.30;;;;;;;19.63;48.92;98365.44;5053643;28;20051;-58
2023/01/18 00:13:38;;;;;;;;;;;;;;;19.63;48.96;98343.16;5053922;28;20483;-58
2023/01/18 00:16:24;;;;;;;3.92;3.03;;;;;;;19.63;48.82;98345.81;5053368;28;20424;-58
2023/01/18 00:18:54;;;;;;;4.45;3.33;;;;;;;19.61;48.95;98348.72;5053039;28;20052;-59
2023/01/18 00:21:23;;;;;;;4.35;3.40;;;;;;;19.61;48.81;98340.66;5053514;28;20477;-59
2023/01/18 00:23:50;;;;;;;6.60;3.58;;;;;;;19.62;48.86;98344.19;5053596;28;20044;-59
2023/01/18 00:26:18;;;;;;;4.18;2.53;;;;;;;19.60;48.78;98328.22;5053648;28;20115;-59
2023/01/18 00:28:46;;;;;;;6.10;2.83;;;;;;;19.61;48.76;98337.13;5054044;28;20045;-59
2023/01/18 00:31:18;;;;;;;4.95;3.45;;;;;;;19.60;48.61;98338.13;5053480;28;20057;-59
2023/01/18 00:33:48;;;;;;;4.63;3.30;;;;;;;19.59;48.86;98339.97;5053547;28;20569;-59
2023/01/18 00:36:16;;;;;;;4.82;3.40;;;;;;;19.59;48.87;98352.56;5054009;28;20037;-59
2023/01/18 00:38:50;;;;;;;4.30;3.03;;;;;;;19.58;48.82;98351.75;5053522;28;20052;-59
2023/01/18 00:41:18;;;;;;;4.95;3.33;;;;;;;19.58;48.81;98351.75;5072172;28;20041;-58
2023/01/18 00:43:46;;;;;;;5.18;3.55;;;;;;;19.58;48.78;98353.59;5073414;28;20067;-59
2023/01/18 00:46:23;;;;;;;5.30;3.60;;;;;;;19.57;48.62;98360.84;5073110;28;20417;-58
2023/01/18 00:48:51;;;;;;;4.75;3.38;;;;;;;19.57;48.76;98359.97;5073290;28;20470;-59
2023/01/18 00:51:22;;;;;;;6.25;3.53;;;;;;;19.57;48.65;98362.66;5073802;28;20075;-59
2023/01/18 00:53:50;;;;;;;5.50;4.10;;;;;;;19.56;48.69;98377.94;5073101;28;20037;-59
2023/01/18 00:56:20;;;;;;;5.10;3.53;;;;;;;19.56;48.72;98380.63;5072940;28;20497;-59
2023/01/18 00:58:48;;;;;;;4.72;3.45;;;;;;;19.56;48.55;98391.34;5072355;28;20049;-59
2023/01/18 01:01:15;;;;;;;5.22;3.75;;;;;;;19.56;48.80;98385.97;5063166;28;20037;-59
2023/01/18 01:06:43;;;;;;;4.88;3.15;;;;;;;19.57;48.60;98403.78;5059220;28;20049;-58
2023/01/18 01:09:13;;;;;;;5.07;3.50;;;;;;;19.56;48.55;98404.78;5073291;28;20455;-59
2023/01/18 01:12:31;;;;;;;5.28;3.30;;;;;;;19.56;48.73;98401.25;5072854;28;20470;-59
2023/01/18 01:28:17;;;;;;;4.70;3.47;;;;;;;19.54;48.54;98381.84;5076962;28;20036;-58
2023/01/18 01:30:45;;;;;;;6.80;4.35;;;;;;;19.53;48.43;98389.06;5076692;28;20052;-58
2023/01/18 01:33:12;;;;;;;6.10;3.75;;;;;;;19.53;48.49;98383.72;5076074;28;20390;-58
2023/01/18 01:35:40;;;;;;;4.63;3.50;;;;;;;19.52;48.59;98390.91;5076227;28;20075;-58
2023/01/18 01:38:08;;;;;;;5.57;3.38;;;;;;;19.53;48.51;98394.44;5076683;28;20044;-59
2023/01/18 01:40:35;;;;;;;4.93;3.50;;;;;;;19.53;48.52;98405.19;5076587;28;20052;-59
2023/01/18 01:43:02;;;;;;;5.53;3.60;;;;;;;19.53;48.58;98399.81;5076182;28;20059;-59
2023/01/18 01:45:31;;;;;;;6.63;4.20;;;;;;;19.52;48.49;98415.06;5076621;28;20386;-59
2023/01/18 01:47:58;;;;;;;5.93;4.25;;;;;;;19.52;48.35;98416.91;5076593;28;20049;-59
2023/01/18 01:50:33;;;;;;;6.57;3.90;;;;;;;19.51;48.48;98423.31;5076470;28;20044;-58
2023/01/18 01:53:02;;;;;;;4.90;3.53;;;;;;;19.51;48.51;98421.44;5076253;28;20055;-58
2023/01/18 01:55:36;;;;;;;5.88;3.80;;;;;;;19.51;48.61;98423.31;5075365;28;20490;-58
2023/01/18 01:58:11;;;;;;;6.15;3.97;;;;;;;19.51;48.58;98424.13;5076419;28;20037;-59
2023/01/18 02:00:39;;;;;;;5.28;3.90;;;;;;;19.50;48.45;98419.78;5076231;28;20048;-58
2023/01/18 02:03:14;;;;;;;5.75;3.88;;;;;;;19.50;48.57;98403.69;5058074;28;20061;-58
2023/01/18 02:05:44;;;;;;;6.07;3.55;;;;;;;19.50;48.52;98410.91;5056397;28;20045;-58
2023/01/18 02:08:20;;;;;;;5.88;3.97;;;;;;;19.50;48.40;98410.91;5056070;28;20041;-58
2023/01/18 02:10:49;;;;;;;5.63;3.85;;;;;;;19.49;48.62;98414.63;5055020;28;20044;-58
2023/01/18 02:13:18;;;;;;;4.80;3.72;;;;;;;19.48;48.56;98426.38;5056069;28;20052;-58
2023/01/18 02:16:22;;;;;;;4.93;3.55;;;;;;;19.49;48.43;98454.88;5055945;28;20052;-58
2023/01/18 02:19:08;;;;;;;5.03;3.50;;;;;;;19.48;48.52;98482.72;5056005;28;20420;-58
2023/01/18 02:21:41;;;;;;;6.70;3.40;;;;;;;19.48;48.54;98490.75;5055746;28;20059;-58
2023/01/18 02:24:25;;;;;;;4.20;3.42;;;;;;;19.48;48.50;98498.81;5056103;28;20049;-58
2023/01/18 02:27:14;;;;;;;5.75;3.40;;;;;;;19.47;48.55;98489.94;5054356;28;20060;-58
2023/01/18 02:29:53;;;;;;;4.90;3.30;;;;;;;19.48;48.49;98480.03;5055862;28;20045;-58
2023/01/18 02:32:31;;;;;;;5.03;3.50;;;;;;;19.48;48.52;98477.34;5055675;28;20053;-58
2023/01/18 02:35:01;;;;;;;4.20;3.22;;;;;;;19.49;48.80;98476.34;5055808;28;20052;-58
2023/01/18 02:37:48;;;;;;;5.53;3.10;;;;;;;19.47;48.61;98483.75;5055317;28;20040;-58
2023/01/18 02:40:27;;;;;;;4.68;3.38;;;;;;;19.46;48.72;98495.50;5065809;28;20049;-58
2023/01/18 02:48:41;;;;;;;8.15;3.70;;;;;;;19.47;48.77;98503.34;5075419;28;20037;-58
2023/01/18 02:51:09;;;;;;;5.93;3.75;;;;;;;19.47;48.84;98489.94;5075261;28;20048;-58
2023/01/18 02:53:39;;;;;;;4.32;3.03;;;;;;;19.47;48.85;98491.78;5075194;28;20413;-58
2023/01/18 02:56:18;;;;;;;5.20;3.40;;;;;;;19.47;48.70;98498.00;5074838;28;20052;-57
2023/01/18 02:58:56;;;;;;;5.25;3.88;;;;;;;19.48;49.05;98496.13;5075294;28;20052;-59
2023/01/18 03:01:46;;;;;;;6.78;3.58;;;;;;;19.47;48.61;98481.88;5075375;28;20045;-59
2023/01/18 03:04:20;;;;;;;3.97;2.78;;;;;;;19.48;48.56;98488.09;5057180;28;20394;-59
2023/01/18 03:06:56;;;;;;;5.18;3.40;;;;;;;19.48;48.41;98493.44;5057036;28;20056;-59
2023/01/18 03:09:26;;;;;;;5.72;3.03;;;;;;;19.48;48.43;98505.00;5074963;28;20047;-58
2023/01/18 03:12:05;;;;;;;5.28;3.38;;;;;;;19.48;48.31;98501.50;5075039;28;20056;-58
2023/01/18 03:15:08;;;;;;;7.80;3.55;;;;;;;19.48;48.44;98501.50;5074737;28;20048;-58
2023/01/18 03:17:40;;;;;;;;;;;;;;;19.47;48.56;98487.25;5074976;28;20055;-58
2023/01/18 03:20:13;;;;;;;5.32;2.88;;;;;;;19.46;48.56;98490.97;5073378;28;19927;-58
2023/01/18 03:25:35;;;;;;;4.85;3.40;;;;;;;19.45;48.57;98491.16;5074431;28;20048;-58
2023/01/18 03:33:59;;;;;;;5.10;3.17;;;;;;;19.44;48.46;98482.25;5074735;28;20048;-58
2023/01/18 03:36:32;;;;;;;4.75;3.08;;;;;;;19.44;48.37;98490.31;5074239;28;20049;-58
2023/01/18 03:39:08;;;;;;;4.72;3.20;;;;;;;19.43;48.55;98496.72;5074444;28;20066;-58
2023/01/18 03:41:41;;;;;;;5.78;3.55;;;;;;;19.43;48.45;98499.38;5054210;28;20049;-58
2023/01/18 03:44:34;;;;;;;4.50;2.70;;;;;;;19.44;48.38;98521.69;5054055;28;20483;-58
2023/01/18 03:47:04;;;;;;;3.43;2.83;;;;;;;19.43;48.35;98523.53;5054445;28;20045;-59
2023/01/18 03:49:33;;;;;;;4.28;3.00;;;;;;;19.43;48.39;98534.28;5054136;28;20298;-59
2023/01/18 03:52:22;;;;;;;3.80;2.60;;;;;;;19.43;48.35;98528.06;5053944;28;20051;-59
2023/01/18 03:54:54;;;;;;;6.65;3.08;;;;;;;19.41;48.48;98520.22;5054153;28;20045;-59
2023/01/18 03:57:28;;;;;;;5.32;3.10;;;;;;;19.41;48.48;98530.13;5054464;28;20048;-58
2023/01/18 03:59:56;;;;;;;3.70;2.50;;;;;;;19.42;48.45;98526.41;5054328;28;20052;-59
2023/01/18 04:02:25;;;;;;;4.45;2.90;;;;;;;19.40;48.52;98518.53;5054377;28;20060;-59
2023/01/18 04:04:56;;;;;;;4.78;2.90;;;;;;;19.42;48.35;98526.41;5051701;28;20045;-59
2023/01/18 04:07:24;;;;;;;3.67;2.28;;;;;;;19.41;48.15;98519.41;5071377;28;20051;-59
2023/01/18 04:09:52;;;;;;;4.50;3.20;;;;;;;19.41;48.35;98530.13;5073820;28;20506;-57
2023/01/18 04:12:19;;;;;;;6.85;2.88;;;;;;;19.39;48.65;98524.09;5073991;28;20048;-57
2023/01/18 04:14:46;;;;;;;4.78;2.63;;;;;;;19.40;48.36;98529.28;5073659;28;20402;-57
2023/01/18 04:17:14;;;;;;;3.63;2.50;;;;;;;19.40;48.46;98528.44;5073494;28;20048;-58
2023/01/18 04:19:41;;;;;;;3.53;2.25;;;;;;;19.40;48.30;98523.91;5073623;28;20041;-58
2023/01/18 04:22:09;;;;;;;4.72;2.90;;;;;;;19.40;48.26;98523.91;5073496;28;20048;-58
2023/01/18 04:24:37;;;;;;;3.05;2.15;;;;;;;19.39;48.26;98521.41;5073209;28;20051;-59
2023/01/18 04:27:04;;;;;;;4.20;2.88;;;;;;;19.39;48.37;98535.66;5073307;28;20410;-59
2023/01/18 04:29:31;;;;;;;3.85;2.72;;;;;;;19.39;48.26;98526.78;5074089;28;20355;-59
2023/01/18 04:31:59;;;;;;;4.57;2.60;;;;;;;19.37;48.34;98524.31;5073350;28;20055;-59
2023/01/18 04:34:26;;;;;;;5.15;2.60;;;;;;;19.37;48.39;98534.22;5073291;28;20470;-59
2023/01/18 04:36:53;;;;;;;5.35;2.92;;;;;;;19.39;48.25;98542.88;5073172;28;20056;-59
2023/01/18 04:39:21;;;;;;;3.58;2.22;;;;;;;19.39;48.17;98553.63;5074360;28;20049;-58
2023/01/18 04:41:48;;;;;;;3.72;2.67;;;;;;;19.39;48.22;98550.94;5073102;28;20052;-58
2023/01/18 04:44:15;;;;;;;3.90;2.42;;;;;;;19.39;48.33;98550.94;5073062;28;20060;-59
2023/01/18 04:46:43;;;;;;;4.00;2.55;;;;;;;19.37;48.19;98548.44;5073695;28;20067;-59
2023/01/18 04:49:14;;;;;;;3.58;1.95;;;;;;;19.38;48.39;98536.69;5072753;28;20036;-59
2023/01/18 04:51:43;;;;;;;4.70;2.40;;;;;;;19.37;48.25;98537.72;5072962;28;20044;-59
2023/01/18 04:54:11;;;;;;;3.47;2.40;;;;;;;19.37;48.18;98537.72;5073074;28;20051;-59
2023/01/18 04:56:39;;;;;;;3.92;2.40;;;;;;;19.36;48.30;98552.13;5073347;28;20391;-59
2023/01/18 04:59:06;;;;;;;3.30;2.10;;;;;;;19.37;48.17;98563.72;5073182;28;20045;-59
2023/01/18 05:01:35;;;;;;;5.28;2.65;;;;;;;19.37;48.11;98566.41;5071882;28;20383;-59
2023/01/18 05:04:02;;;;;;;3.67;2.30;;;;;;;19.37;48.30;98579.81;5073061;28;20478;-59
2023/01/18 05:06:30;;;;;;;4.43;2.00;;;;;;;19.36;48.23;98578.13;5053010;28;20049;-57
2023/01/18 05:08:57;;;;;;;3.97;1.92;;;;;;;19.35;48.26;98580.00;5064710;28;20056;-58
2023/01/18 05:11:24;;;;;;;3.65;2.38;;;;;;;19.36;48.25;98586.19;5073057;28;20513;-58
2023/01/18 05:13:52;;;;;;;4.18;2.13;;;;;;;19.36;48.27;98570.09;5073402;28;20045;-58
2023/01/18 05:16:21;;;;;;;2.83;2.05;;;;;;;19.35;48.20;98563.06;5073009;28;20498;-58
2023/01/18 05:18:49;;;;;;;3.78;2.17;;;;;;;19.35;48.28;98573.78;5073195;28;20052;-58
2023/01/18 05:21:16;;;;;;;4.43;2.25;;;;;;;19.34;48.10;98588.22;5073135;28;20507;-59
2023/01/18 05:23:44;;;;;;;3.45;1.92;;;;;;;19.34;48.32;98598.97;5072733;28;20048;-59
2023/01/18 05:26:15;;;;;;;6.75;2.00;;;;;;;19.34;48.38;98598.97;5072737;28;20418;-58
2023/01/18 05:28:43;;;;;;;3.00;2.03;;;;;;;19.34;48.38;98610.53;5073333;28;20052;-59
2023/01/18 05:31:12;;;;;;;2.95;2.25;;;;;;;19.34;48.46;98609.69;5072689;28;20052;-59
2023/01/18 05:33:39;;;;;;;3.50;1.90;;;;;;;19.34;48.48;98613.22;5072450;28;20037;-59
2023/01/18 05:36:07;;;;;;;3.35;2.25;;;;;;;19.34;48.42;98615.88;5072545;28;20049;-59
2023/01/18 05:38:35;;;;;;;3.22;2.17;;;;;;;19.34;48.34;98609.69;5072716;28;20115;-59
2023/01/18 05:41:02;;;;;;;3.63;2.35;;;;;;;19.34;48.30;98586.38;5072392;28;20044;-59
2023/01/18 05:43:30;;;;;;;3.55;2.20;;;;;;;19.34;48.42;98588.22;5072790;28;20060;-59
2023/01/18 05:45:58;;;;;;;3.53;1.90;;;;;;;19.34;48.42;98607.00;5072565;28;20041;-59
2023/01/18 05:48:26;;;;;;;3.67;1.60;;;;;;;19.34;48.39;98604.34;5072994;28;20044;-59
2023/01/18 05:50:53;;;;;;;2.75;1.50;;;;;;;19.33;48.32;98614.22;5072752;28;20053;-59
2023/01/18 05:53:21;;;;;;;3.63;1.90;;;;;;;19.33;48.42;98616.09;5072598;28;20054;-59
2023/01/18 05:56:00;;;;;;;3.55;2.22;;;;;;;19.33;48.45;98624.97;5072355;28;20059;-59
2023/01/18 05:58:28;;;;;;;3.72;1.90;;;;;;;19.34;48.38;98620.44;5073162;28;20056;-59
2023/01/18 06:00:55;;;;;;;3.05;1.95;;;;;;;19.33;48.38;98608.03;5074512;28;20044;-57
2023/01/18 06:03:24;;;;;;;2.40;1.75;;;;;;;19.32;48.30;98591.09;5076016;28;20041;-58
2023/01/18 06:05:51;;;;;;;2.95;2.05;;;;;;;19.31;48.18;98586.75;5070611;28;20464;-59
2023/01/18 06:08:19;;;;;;;3.03;2.05;;;;;;;19.32;48.26;98622.44;5055300;28;20487;-57
2023/01/18 06:10:55;;;;;;;3.17;1.65;;;;;;;19.32;48.31;98607.19;5054770;28;20049;-59
2023/01/18 06:13:23;;;;;;;2.20;1.52;;;;;;;19.32;48.29;98611.72;5055930;28;20051;-58
2023/01/18 06:15:53;;;;;;;3.47;2.22;;;;;;;19.32;48.09;98660.84;5056206;28;20390;-58
2023/01/18 06:18:21;;;;;;;3.90;2.22;;;;;;;19.32;48.29;98657.31;5056339;28;20057;-59
2023/01/18 06:20:51;;;;;;;3.25;1.83;;;;;;;19.31;48.16;98679.81;5055937;28;20467;-58
2023/01/18 06:23:19;;;;;;;4.20;1.65;;;;;;;19.31;48.41;98661.88;5056228;28;20490;-58
2023/01/18 06:25:46;;;;;;;3.08;1.88;;;;;;;19.31;48.21;98650.31;5055753;28;20045;-58
2023/01/18 06:28:14;;;;;;;4.38;2.08;;;;;;;19.30;47.95;98652.16;5055882;28;20467;-58
2023/01/18 06:30:41;;;;;;;3.10;2.13;;;;;;;19.31;48.27;98647.63;5055577;28;20100;-58
2023/01/18 06:33:09;;;;;;;3.08;2.00;;;;;;;19.30;48.03;98645.97;5056066;28;20052;-59
2023/01/18 06:35:37;;;;;;;3.35;2.15;;;;;;;19.30;48.18;98619.13;5055447;28;20052;-58
2023/01/18 06:38:04;;;;;;;2.60;1.88;;;;;;;19.30;47.89;98628.00;5055773;28;20045;-58
2023/01/18 06:40:31;;;;;;;3.08;1.92;;;;;;;19.29;48.16;98655.88;5068061;28;20378;-58
2023/01/18 06:42:59;;;;;;;3.28;1.90;;;;;;;19.30;48.09;98660.22;5075601;28;20390;-58
2023/01/18 06:45:28;;;;;;;3.78;2.33;;;;;;;19.30;48.10;98662.06;5075418;28;20529;-58
2023/01/18 06:47:56;;;;;;;4.05;2.10;;;;;;;19.29;48.10;98655.03;5075511;28;20055;-58
2023/01/18 06:50:23;;;;;;;2.95;2.03;;;;;;;19.27;48.09;98664.06;5075360;28;20374;-58
2023/01/18 06:52:51;;;;;;;3.70;2.30;;;;;;;19.28;47.99;98659.53;5075592;28;20051;-57
2023/01/18 06:55:18;;;;;;;2.92;1.88;;;;;;;19.27;47.96;98664.06;5075213;28;20071;-57
2023/01/18 06:57:46;;;;;;;3.08;2.17;;;;;;;19.27;48.06;98674.81;5075242;28;20037;-59
2023/01/18 07:00:17;;;;;;;2.92;1.98;;;;;;;19.29;47.99;98671.13;5075737;28;20039;-58
2023/01/18 07:02:44;;;;;;;4.05;2.28;;;;;;;19.27;47.98;98661.41;5075260;28;20056;-57
2023/01/18 07:05:12;;;;;;;3.08;1.88;;;;;;;19.29;48.06;98660.41;5074908;28;20052;-58
2023/01/18 07:07:39;;;;;;;3.38;2.10;;;;;;;19.30;48.20;98680.84;5062363;28;20037;-58
2023/01/18 07:10:07;;;;;;;3.65;2.28;;;;;;;19.29;47.96;98692.59;5074203;28;20048;-58
2023/01/18 07:12:34;;;;;;;3.15;2.10;;;;;;;19.28;48.16;98686.38;5074454;28;20387;-58
2023/01/18 07:15:04;;;;;;;5.03;1.80;;;;;;;19.29;48.15;98693.41;5074911;28;20041;-58
2023/01/18 07:17:49;;;;;;;3.50;1.60;;;;;;;19.29;48.15;98706.00;5075282;28;20056;-58
2023/01/18 07:20:17;;;;;;;4.00;1.52;;;;;;;19.29;48.12;98708.69;5074822;28;20048;-58
2023/01/18 07:22:44;;;;;;;3.83;2.10;;;;;;;19.27;48.09;98707.00;5074578;28;20359;-58
2023/01/18 07:25:12;;;;;;;2.65;1.60;;;;;;;19.29;48.17;98720.25;5074980;28;20521;-58
2023/01/18 07:27:43;;;;;;;2.90;1.92;;;;;;;19.27;48.11;98725.78;5074554;28;20049;-58
2023/01/18 07:30:11;;;;;;;4.65;2.58;;;;;;;19.27;48.17;98709.69;5079443;28;20056;-58
2023/01/18 07:32:43;;;;;;;4.28;1.88;;;;;;;19.28;48.25;98707.81;5074595;28;20056;-58
2023/01/18 07:35:10;;;;;;;4.70;1.67;;;;;;;19.27;48.17;98720.41;5074382;28;20075;-58
2023/01/18 07:37:38;;;;;;;2.85;1.75;;;;;;;19.28;48.12;98721.25;5074464;28;20048;-58
2023/01/18 07:40:07;;;;;;;3.85;1.80;;;;;;;19.28;48.17;98718.56;5074631;28;20045;-58
2023/01/18 07:42:35;;;;;;;3.63;1.88;;;;;;;19.28;48.33;98729.28;5074213;28;20048;-58
2023/01/18 07:45:02;;;;;;;4.28;2.28;;;;;;;19.27;48.33;98712.38;5073963;28;20071;-58
2023/01/18 07:47:30;;;;;;;4.68;2.08;;;;;;;19.27;48.34;98720.41;5074351;28;20402;-58
2023/01/18 07:49:57;;;;;;;3.95;2.00;;;;;;;19.27;48.18;98738.38;5074249;28;20047;-58
2023/01/18 07:52:24;;;;;;;3.80;2.13;;;;;;;19.27;48.16;98744.56;5074401;28;20036;-58
2023/01/18 07:54:52;;;;;;;5.38;2.05;;;;;;;19.27;48.31;98743.72;5071276;28;20052;-58
2023/01/18 07:57:19;;;;;;;3.53;2.38;;;;;;;19.27;48.07;98747.25;5071327;28;20062;-60
2023/01/18 07:59:46;;;;;;;6.50;2.95;;;;;;;19.29;46.67;98740.88;5089715;28;20044;-58
2023/01/18 08:02:13;;;;;;;4.15;2.42;;;;;;;19.29;47.32;98747.06;5094251;28;20063;-57
2023/01/18 08:04:42;;;;;;;4.85;2.42;;;;;;;19.32;48.51;98745.84;5088667;28;20052;-58
2023/01/18 08:07:09;;;;;;;6.68;2.58;;;;;;;19.34;48.82;98759.94;5072727;28;20049;-59
2023/01/18 08:09:37;;;;;;;5.18;2.58;;;;;;;19.34;48.59;98754.56;5062391;28;20415;-58
2023/01/18 08:12:06;;;;;;;8.65;5.40;;;;;;;19.30;45.45;98766.69;5073412;28;20043;-58
2023/01/18 08:14:34;;;;;;;7.90;4.90;;;;;;;19.28;44.93;98772.22;5073277;28;20495;-59
2023/01/18 08:17:02;;;;;;;7.53;6.03;;;;;;;19.26;43.85;98771.56;5073734;28;20410;-59
2023/01/18 08:19:29;;;;;;;9.45;5.15;;;;;;;19.23;43.32;98779.97;5072955;28;20491;-59
2023/01/18 08:21:56;;;;;;;8.57;6.35;;;;;;;19.20;42.75;98797.28;5073427;28;20051;-59
2023/01/18 08:24:24;;;;;;;12.02;9.70;;;;;;;19.17;42.68;98805.69;5072861;28;20047;-58
2023/01/18 08:26:52;;;;;;;10.55;9.02;;;;;;;19.15;42.63;98815.75;5073025;28;20063;-59
2023/01/18 08:29:19;;;;;;;10.50;7.78;;;;;;;19.13;42.32;98815.09;5073440;28;20048;-58
2023/01/18 08:31:51;;;;;;;9.85;7.53;;;;;;;19.10;42.12;98831.56;5072302;28;20045;-54
2023/01/18 08:34:18;;;;;;;8.45;7.25;;;;;;;19.09;41.86;98832.56;5073327;28;20051;-58
2023/01/18 08:36:46;;;;;;;11.27;7.45;;;;;;;19.07;41.78;98845.31;5072994;28;20513;-54
2023/01/18 08:39:13;;;;;;;10.45;8.80;;;;;;;19.05;41.64;98843.84;5073271;28;20044;-55
2023/01/18 08:41:41;;;;;;;9.10;7.45;;;;;;;19.03;42.13;98825.22;5073644;28;20075;-54
2023/01/18 08:44:08;;;;;;;8.25;6.85;;;;;;;19.06;43.10;98846.34;5073388;28;20058;-53
2023/01/18 08:46:35;;;;;;;8.38;5.75;;;;;;;19.10;44.99;98861.06;5072891;28;20044;-51
2023/01/18 08:49:05;;;;;;;12.98;5.43;;;;;;;19.15;45.46;98860.50;5073471;28;20045;-54
2023/01/18 08:51:32;;;;;;;6.90;5.18;;;;;;;19.18;45.39;98866.38;5072876;28;20052;-55
2023/01/18 08:54:00;;;;;;;8.77;4.72;;;;;;;19.20;45.71;98872.41;5072866;28;20048;-56
2023/01/18 08:56:28;;;;;;;7.95;4.70;;;;;;;19.23;45.71;98879.22;5073082;28;20036;-55
2023/01/18 08:58:56;;;;;;;10.27;4.15;;;;;;;19.24;45.64;98879.06;5071318;28;20049;-56
2023/01/18 09:01:23;;;;;;;8.75;4.60;;;;;;;19.26;45.78;98887.75;5073243;28;20063;-56
2023/01/18 09:03:56;;;;;;;6.00;4.10;;;;;;;19.29;45.73;98885.75;5072843;28;20048;-57
2023/01/18 09:06:30;;;;;;;7.57;4.35;;;;;;;19.30;45.97;98882.06;5072774;28;20045;-59
2023/01/18 09:08:58;;;;;;;7.63;4.50;;;;;;;19.30;46.07;98887.41;5069085;28;20051;-58
2023/01/18 09:11:26;;;;;;;6.30;4.20;;;;;;;19.32;45.74;98909.53;5052133;28;20048;-57
2023/01/18 09:13:54;;;;;;;5.95;4.40;;;;;;;19.32;45.93;98922.94;5052537;28;20056;-52
2023/01/18 09:16:29;;;;;;;7.57;3.92;;;;;;;19.32;45.31;98925.63;5055203;28;20056;-59
2023/01/18 09:18:58;;;;;;;6.35;4.22;;;;;;;19.34;45.77;98920.91;5073453;28;20048;-59
2023/01/18 09:21:29;;;;;;;5.57;4.05;;;;;;;19.34;46.02;98915.56;5072723;28;20045;-58
2023/01/18 09:23:58;;;;;;;4.65;3.67;;;;;;;19.33;45.94;98900.47;5072805;28;20755;-57
2023/01/18 09:26:26;;;;;;;7.10;3.85;;;;;;;19.33;45.81;98919.25;5072896;28;20045;-56
2023/01/18 09:28:54;;;;;;;6.68;3.88;;;;;;;19.34;45.97;98926.28;5072674;28;20075;-51
2023/01/18 09:31:24;;;;;;;5.57;3.58;;;;;;;19.35;45.98;98939.50;5072473;28;20049;-52
2023/01/18 09:33:54;;;;;;;4.90;3.30;;;;;;;19.34;46.11;98934.34;5072770;28;20041;-56
2023/01/18 09:36:27;;;;;;;5.82;3.63;;;;;;;19.35;46.14;98934.16;5075888;28;20053;-58
2023/01/18 09:38:55;;;;;;;5.28;3.70;;;;;;;19.34;45.97;98935.16;5076644;28;20055;-51
2023/01/18 09:41:32;;;;;;;6.47;4.43;;;;;;;19.35;45.74;98941.38;5056909;28;20041;-48
2023/01/18 09:44:07;;;;;;;7.25;5.22;;;;;;;19.34;45.36;98937.03;5056061;28;20061;-56
2023/01/18 09:46:38;;;;;;;7.72;5.18;;;;;;;19.34;45.02;98940.53;5058986;28;20060;-55
2023/01/18 09:49:17;;;;;;;6.15;3.88;;;;;;;19.35;45.96;98960.97;5076497;28;20048;-59
2023/01/18 09:51:50;;;;;;;7.80;4.72;;;;;;;19.36;45.91;98961.81;5076373;28;20504;-57
2023/01/18 09:54:25;;;;;;;;;;;;;;;19.35;45.14;98952.09;5076552;28;20044;-59
2023/01/18 09:57:17;;;;;;;5.80;4.00;;;;;;;19.35;45.98;98954.78;5076075;28;19927;-57
2023/01/18 09:59:56;;;;;;;5.53;4.07;;;;;;;19.35;46.22;98955.63;5076233;28;20421;-52
2023/01/18 10:02:31;;;;;;;5.00;3.95;;;;;;;19.36;46.13;98964.50;5075971;28;20048;-54
2023/01/18 10:05:10;;;;;;;4.88;4.15;;;;;;;19.37;46.11;98960.81;5074367;28;20048;-54
2023/01/18 10:08:10;;;;;;;4.55;3.30;;;;;;;19.37;46.20;98968.88;5076050;28;20047;-57
2023/01/18 10:10:42;;;;;;;12.90;5.82;;;;;;;19.39;44.46;98977.56;5063963;28;20063;-58
2023/01/18 10:13:28;;;;;;;12.73;11.02;;;;;;;19.29;41.93;98963.56;5057261;28;20041;-52
2023/01/18 10:15:55;;;;;;;10.18;7.35;;;;;;;19.29;44.11;98960.88;5056121;28;20045;-58
2023/01/18 10:18:23;;;;;;;7.60;5.47;;;;;;;19.31;45.59;98953.47;5056048;28;20045;-58
2023/01/18 10:20:56;;;;;;;8.85;5.50;;;;;;;19.32;44.93;98958.66;5055772;28;20045;-59
2023/01/18 10:23:46;;;;;;;8.43;5.63;;;;;;;19.34;45.86;98962.00;5055733;28;20053;-57
2023/01/18 10:26:25;;;;;;;8.27;4.43;;;;;;;19.36;45.33;98961.81;5055895;28;20058;-59
2023/01/18 10:29:21;;;;;;;13.45;5.40;;;;;;;19.39;45.00;98956.09;5055830;28;20049;-58
2023/01/18 10:32:14;;;;;;;7.22;5.05;;;;;;;19.39;45.38;98962.28;5054142;28;20040;-57
2023/01/18 10:34:44;;;;;;;;;;;;;;;19.40;44.75;98957.75;5054281;28;20533;-55
2023/01/18 10:37:27;;;;;;;7.57;4.50;;;;;;;19.40;44.81;98958.59;5055467;28;19943;-59
2023/01/18 10:40:04;;;;;;;6.40;4.47;;;;;;;19.40;45.23;98957.75;5063389;28;20049;-58
2023/01/18 10:42:46;;;;;;;5.18;4.07;;;;;;;19.40;44.98;98966.66;5075128;28;20052;-53
2023/01/18 10:45:20;;;;;;;7.32;4.53;;;;;;;19.40;45.18;98965.81;5075295;28;20061;-52
2023/01/18 10:47:48;;;;;;;5.05;4.47;;;;;;;19.39;44.91;98962.28;5074193;28;20463;-60
2023/01/18 10:50:41;;;;;;;5.47;4.43;;;;;;;19.41;44.88;98959.47;5075929;28;20048;-61
2023/01/18 10:53:29;;;;;;;7.25;4.63;;;;;;;19.41;45.08;98964.81;5075487;28;20040;-62
2023/01/18 10:56:12;;;;;;;5.57;4.70;;;;;;;19.41;44.71;98962.13;5075130;28;20059;-60
2023/01/18 10:58:40;;;;;;;;;;;;;;;19.42;44.88;98958.44;5076266;28;20048;-58
2023/01/18 11:01:14;;;;;;;5.55;4.35;;;;;;;19.41;44.55;98962.13;5075098;28;19920;-57
2023/01/18 11:04:06;;;;;;;4.95;4.28;;;;;;;19.41;44.94;98960.28;5074948;28;20529;-53
2023/01/18 11:06:49;;;;;;;5.18;3.92;;;;;;;19.40;44.81;98961.28;5074814;28;20044;-55
2023/01/18 11:09:29;;;;;;;4.95;4.38;;;;;;;19.40;44.99;98955.06;5074450;28;20056;-58
2023/01/18 11:15:13;;;;;;;9.20;4.07;;;;;;;19.42;44.69;98945.03;5055109;28;20064;-58
2023/01/18 11:17:59;;;;;;;7.93;4.30;;;;;;;19.41;44.47;98952.22;5054492;28;20045;-58
2023/01/18 11:20:44;;;;;;;6.68;4.63;;;;;;;19.42;44.47;98947.69;5054753;28;20045;-52
2023/01/18 11:23:19;;;;;;;5.50;3.83;;;;;;;19.43;45.59;98950.19;5054838;28;20056;-59
2023/01/18 11:25:58;;;;;;;5.60;4.53;;;;;;;19.46;44.98;98943.66;5054349;28;20053;-59
2023/01/18 11:28:43;;;;;;;6.85;3.72;;;;;;;19.46;45.43;98940.97;5054728;28;20052;-58
2023/01/18 11:31:20;;;;;;;7.63;3.97;;;;;;;19.46;44.73;98943.66;5053317;28;20072;-60
2023/01/18 11:33:54;;;;;;;8.48;4.45;;;;;;;19.45;44.84;98956.22;5054544;28;20048;-58
2023/01/18 11:36:40;;;;;;;5.78;4.10;;;;;;;19.46;45.40;98965.13;5066269;28;20055;-59
2023/01/18 11:39:29;;;;;;;7.18;4.10;;;;;;;19.47;44.79;98961.41;5074103;28;20048;-52
2023/01/18 11:42:20;;;;;;;5.20;4.28;;;;;;;19.47;45.12;98958.72;5074703;28;20060;-60
2023/01/18 11:45:11;;;;;;;5.88;3.95;;;;;;;19.47;45.20;98961.41;5074374;28;20049;-56
2023/01/18 11:47:44;;;;;;;6.65;4.38;;;;;;;19.45;44.71;98977.69;5073901;28;20060;-57
2023/01/18 11:50:14;;;;;;;;;;;;;;;19.44;45.18;98969.81;5075162;28;20048;-58
2023/01/18 11:53:09;;;;;;;4.88;3.55;;;;;;;19.44;45.52;98967.13;5073862;28;19927;-57
2023/01/18 11:56:04;;;;;;;5.68;4.07;;;;;;;19.44;45.56;98965.28;5073847;28;20055;-59
2023/01/18 11:58:34;;;;;;;5.90;4.10;;;;;;;19.45;45.55;98964.28;5073856;28;20049;-60
2023/01/18 12:01:21;;;;;;;7.03;4.45;;;;;;;19.44;45.34;98965.28;5073043;28;20047;-55
2023/01/18 12:04:10;;;;;;;5.70;4.38;;;;;;;19.45;45.62;98976.88;5073614;28;20055;-60
2023/01/18 12:06:45;;;;;;;8.20;4.40;;;;;;;19.46;45.76;98995.47;5072222;28;20059;-60
2023/01/18 12:09:24;;;;;;;6.70;3.90;;;;;;;19.47;46.18;99001.66;5073470;28;20056;-59
2023/01/18 12:12:19;;;;;;;5.95;3.80;;;;;;;19.48;46.31;99006.00;5068791;28;20041;-54
2023/01/18 12:14:55;;;;;;;4.75;3.80;;;;;;;19.48;46.75;98997.97;5069338;28;20040;-59
2023/01/18 12:18:06;;;;;;;5.40;3.72;;;;;;;19.49;46.63;98991.59;5073759;28;20392;-57
2023/01/18 12:20:48;;;;;;;6.78;3.70;;;;;;;19.48;46.61;98977.31;5071136;28;20056;-54
2023/01/18 12:23:45;;;;;;;6.68;4.28;;;;;;;19.47;46.27;98974.81;5071302;28;20048;-57
2023/01/18 12:26:18;;;;;;;11.73;4.20;;;;;;;19.45;47.13;98977.69;5071239;28;20542;-58
2023/01/18 12:28:56;;;;;;;6.88;4.47;;;;;;;19.44;48.11;98978.69;5071288;28;20367;-57
2023/01/18 12:31:57;;;;;;;5.68;4.07;;;;;;;19.44;48.29;98981.38;5071312;28;20562;-57
2023/01/18 12:34:52;;;;;;;8.00;4.72;;;;;;;19.43;48.55;99001.19;5070981;28;20040;-57